createdAt,value
2022-10-03T00:01:47.057Z,8.65
2022-10-03T00:04:31.915Z,14.30
2022-10-03T00:07:37.446Z,21.23
2022-10-03T00:10:22.798Z,17.35
2022-10-03T00:13:10.478Z,25.48
2022-10-03T00:16:13.488Z,35.38
2022-10-03T00:19:06.981Z,54.67
2022-10-03T00:21:42.724Z,29.40
2022-10-03T00:24:28.347Z,41.40
2022-10-03T00:27:30.872Z,57.78
2022-10-03T00:30:20.240Z,21.13
2022-10-03T00:33:01.448Z,66.93
2022-10-03T00:36:15.332Z,151.50
2022-10-03T00:39:19.857Z,25.65
2022-10-03T00:42:24.360Z,78.90
2022-10-03T00:45:14.198Z,27.60
2022-10-03T00:47:59.433Z,71.80
2022-10-03T00:50:32.488Z,125.38
2022-10-03T00:53:16.593Z,102.90
2022-10-03T00:56:10.939Z,128.57
2022-10-03T00:59:19.476Z,26.42
2022-10-03T01:01:48.746Z,204.43
2022-10-03T01:04:27.666Z,242.13
2022-10-03T01:07:22.679Z,281.33
2022-10-03T01:10:07.812Z,267.77
2022-10-03T01:13:07.195Z,150.70
2022-10-03T01:15:54.884Z,111.05
2022-10-03T01:18:37.444Z,86.63
2022-10-03T01:21:29.564Z,84.72
2022-10-03T01:26:49.650Z,114.13
2022-10-03T01:29:26.454Z,37.60
2022-10-03T01:32:08.348Z,241.80
2022-10-03T01:34:41.781Z,125.85
2022-10-03T01:37:20.940Z,71.65
2022-10-03T01:39:55.913Z,91.57
2022-10-03T01:42:37.744Z,50.95
2022-10-03T01:45:14.897Z,41.17
2022-10-03T01:48:01.264Z,68.85
2022-10-03T01:50:34.900Z,62.38
2022-10-03T01:53:13.669Z,23.17
2022-10-03T01:55:56.467Z,14.82
2022-10-03T01:58:29.933Z,12.80
2022-10-03T02:01:15.216Z,11.32
2022-10-03T02:04:12.549Z,14.35
2022-10-03T02:06:43.882Z,105.00
2022-10-03T02:09:29.683Z,166.02
2022-10-03T02:12:16.573Z,58.72
2022-10-03T02:14:55.478Z,136.20
2022-10-03T02:17:47.286Z,29.58
2022-10-03T02:20:32.294Z,26.83
2022-10-03T02:23:00.248Z,27.52
2022-10-03T02:25:36.178Z,29.27
2022-10-03T02:28:24.668Z,29.67
2022-10-03T02:31:21.822Z,26.20
2022-10-03T02:34:25.450Z,34.38
2022-10-03T02:37:07.483Z,92.20
2022-10-03T02:40:05.371Z,88.18
2022-10-03T02:42:54.522Z,36.80
2022-10-03T02:45:52.153Z,168.07
2022-10-03T02:48:49.080Z,115.05
2022-10-03T02:51:37.683Z,190.60
2022-10-03T02:54:36.110Z,141.25
2022-10-03T02:57:05.848Z,178.57
2022-10-03T03:00:06.360Z,52.72
2022-10-03T03:02:52.688Z,207.50
2022-10-03T03:05:28.491Z,117.50
2022-10-03T03:08:23.571Z,215.85
2022-10-03T03:11:28.060Z,213.60
2022-10-03T03:14:19.633Z,252.13
2022-10-03T03:17:00.386Z,146.80
2022-10-03T03:19:48.372Z,226.80
2022-10-03T03:22:40.204Z,203.30
2022-10-03T03:25:30.248Z,129.63
2022-10-03T03:28:20.822Z,129.45
2022-10-03T03:30:47.859Z,169.43
2022-10-03T03:33:40.996Z,114.65
2022-10-03T03:36:16.956Z,46.70
2022-10-03T03:38:53.035Z,61.40
2022-10-03T03:41:46.380Z,21.52
2022-10-03T03:44:46.384Z,49.10
2022-10-03T03:47:54.316Z,30.55
2022-10-03T03:50:39.192Z,113.68
2022-10-03T03:53:50.624Z,133.27
2022-10-03T03:56:45.709Z,116.00
2022-10-03T03:59:50.146Z,75.25
2022-10-03T04:02:26.085Z,37.40
2022-10-03T04:05:12.534Z,111.85
2022-10-03T04:07:54.540Z,68.07
2022-10-03T04:13:38.846Z,40.58
2022-10-03T04:16:23.890Z,15.10
2022-10-03T04:19:04.904Z,21.30
2022-10-03T04:22:16.737Z,15.40
2022-10-03T04:25:05.873Z,9.63
2022-10-03T04:27:51.599Z,26.98
2022-10-03T04:30:55.963Z,20.85
2022-10-03T04:33:25.687Z,12.93
2022-10-03T04:36:15.029Z,12.00
2022-10-03T04:38:51.113Z,13.02
2022-10-03T04:41:25.539Z,8.82
2022-10-03T04:44:16.640Z,14.15
2022-10-03T04:46:58.603Z,14.20
2022-10-03T04:52:33.411Z,11.30
2022-10-03T04:55:23.677Z,11.52
2022-10-03T04:58:07.109Z,10.48
2022-10-03T05:00:50.155Z,18.42
2022-10-03T05:03:44.694Z,16.00
2022-10-03T05:06:48.724Z,14.00
2022-10-03T05:09:21.442Z,11.30
2022-10-03T05:11:59.602Z,10.23
2022-10-03T05:14:43.993Z,11.30
2022-10-03T05:17:30.580Z,9.60
2022-10-03T05:20:21.870Z,8.65
2022-10-03T05:23:07.243Z,8.60
2022-10-03T05:25:40.453Z,16.40
2022-10-03T05:28:44.409Z,15.15
2022-10-03T05:31:34.321Z,12.30
2022-10-03T05:34:15.974Z,11.85
2022-10-03T05:36:55.185Z,11.98
2022-10-03T05:39:51.040Z,11.15
2022-10-03T05:42:49.145Z,18.10
2022-10-03T05:45:25.270Z,17.98
2022-10-03T05:48:11.988Z,19.05
2022-10-03T05:51:13.122Z,16.00
2022-10-03T05:53:43.156Z,15.93
2022-10-03T05:56:41.142Z,14.05
2022-10-03T05:59:45.406Z,12.15
2022-10-03T06:02:21.436Z,30.33
2022-10-03T06:05:00.329Z,28.60
2022-10-03T06:07:45.418Z,129.45
2022-10-03T06:10:47.460Z,138.35
2022-10-03T06:13:51.493Z,153.40
2022-10-03T06:16:52.664Z,155.52
2022-10-03T06:19:42.358Z,131.18
2022-10-03T06:22:18.340Z,30.17
2022-10-03T06:25:22.359Z,40.22
2022-10-03T06:28:24.902Z,45.95
2022-10-03T06:31:01.194Z,22.80
2022-10-03T06:33:49.644Z,58.78
2022-10-03T06:36:41.118Z,32.28
2022-10-03T06:39:45.669Z,149.15
2022-10-03T06:42:43.937Z,67.72
2022-10-03T06:45:31.235Z,110.15
2022-10-03T06:48:27.356Z,105.93
2022-10-03T06:51:15.721Z,75.88
2022-10-03T06:53:53.669Z,72.40
2022-10-03T06:56:32.816Z,171.93
2022-10-03T06:59:36.776Z,137.75
2022-10-03T07:02:15.724Z,206.02
2022-10-03T07:05:18.564Z,216.18
2022-10-03T07:07:48.287Z,187.52
2022-10-03T07:10:34.160Z,159.85
2022-10-03T07:13:19.821Z,91.55
2022-10-03T07:16:25.613Z,65.50
2022-10-03T07:19:29.825Z,53.35
2022-10-03T07:22:17.861Z,24.63
2022-10-03T07:25:12.267Z,18.52
2022-10-03T07:27:57.485Z,15.18
2022-10-03T07:30:31.929Z,15.95
2022-10-03T07:33:20.607Z,20.45
2022-10-03T07:36:09.784Z,16.88
2022-10-03T07:39:00.617Z,17.75
2022-10-03T07:42:05.215Z,16.85
2022-10-03T07:45:13.605Z,17.77
2022-10-03T07:48:06.738Z,34.42
2022-10-03T07:50:42.767Z,37.75
2022-10-03T07:53:28.446Z,25.90
2022-10-03T07:56:19.908Z,22.42
2022-10-03T07:59:18.028Z,20.30
2022-10-03T08:01:57.022Z,19.55
2022-10-03T08:04:45.956Z,17.42
2022-10-03T08:07:23.997Z,21.92
2022-10-03T08:09:56.973Z,27.55
2022-10-03T08:12:51.545Z,20.10
2022-10-03T08:15:30.738Z,21.20
2022-10-03T08:18:32.567Z,17.48
2022-10-03T08:21:01.637Z,19.05
2022-10-03T08:23:47.206Z,19.67
2022-10-03T08:26:33.017Z,17.98
2022-10-03T08:29:10.543Z,22.80
2022-10-03T08:32:06.890Z,16.27
2022-10-03T08:34:46.016Z,15.27
2022-10-03T08:37:30.985Z,12.98
2022-10-03T08:40:36.323Z,14.07
2022-10-03T08:43:37.206Z,12.88
2022-10-03T08:46:21.370Z,11.93
2022-10-03T08:49:26.804Z,12.75
2022-10-03T08:52:09.215Z,11.65
2022-10-03T08:54:47.944Z,12.45
2022-10-03T08:57:39.618Z,14.40
2022-10-03T09:00:18.867Z,14.30
2022-10-03T09:03:37.831Z,14.05
2022-10-03T09:06:58.603Z,12.95
2022-10-03T09:10:13.285Z,10.98
2022-10-03T09:13:03.107Z,15.13
2022-10-03T09:15:48.859Z,12.55
2022-10-03T09:18:47.046Z,19.70
2022-10-03T09:21:37.444Z,12.82
2022-10-03T09:24:22.977Z,12.35
2022-10-03T09:27:02.021Z,13.15
2022-10-03T09:29:53.576Z,40.90
2022-10-03T09:32:44.680Z,11.73
2022-10-03T09:35:29.860Z,11.10
2022-10-03T09:38:15.725Z,15.85
2022-10-03T09:41:19.916Z,12.90
2022-10-03T09:44:17.005Z,14.90
2022-10-03T09:46:59.019Z,17.75
2022-10-03T09:49:38.212Z,14.70
2022-10-03T09:52:26.390Z,11.32
2022-10-03T09:54:53.378Z,16.13
2022-10-03T09:57:44.344Z,11.82
2022-10-03T10:00:23.662Z,12.52
2022-10-03T10:03:05.494Z,7.80
2022-10-03T10:08:20.674Z,16.42
2022-10-03T10:11:09.582Z,10.73
2022-10-03T10:14:18.505Z,12.60
2022-10-03T10:17:07.855Z,10.57
2022-10-03T10:19:34.798Z,13.13
2022-10-03T10:22:37.345Z,11.93
2022-10-03T10:25:19.917Z,12.60
2022-10-03T10:27:46.867Z,9.48
2022-10-03T10:30:17.368Z,11.80
2022-10-03T10:33:06.038Z,11.85
2022-10-03T10:35:44.910Z,9.52
2022-10-03T10:38:27.594Z,13.93
2022-10-03T10:41:19.606Z,7.43
2022-10-03T10:46:41.652Z,10.07
2022-10-03T10:49:33.631Z,9.70
2022-10-03T10:52:38.373Z,11.48
2022-10-03T10:55:11.132Z,11.20
2022-10-03T11:01:48.262Z,7.15
2022-10-03T11:04:56.705Z,12.88
2022-10-03T11:07:26.768Z,10.77
2022-10-03T11:10:00.711Z,9.07
2022-10-03T11:13:04.089Z,8.40
2022-10-03T11:15:56.053Z,11.88
2022-10-03T11:21:30.350Z,8.60
2022-10-03T11:24:25.123Z,9.02
2022-10-03T11:27:29.646Z,7.43
2022-10-03T11:30:18.305Z,6.43
2022-10-03T11:33:13.827Z,11.48
2022-10-03T11:36:10.072Z,10.15
2022-10-03T11:39:11.086Z,6.72
2022-10-03T11:42:06.490Z,8.80
2022-10-03T11:45:05.062Z,8.30
2022-10-03T11:47:45.831Z,9.55
2022-10-03T11:50:34.064Z,7.25
2022-10-03T11:53:22.362Z,8.18
2022-10-03T11:56:12.285Z,5.93
2022-10-03T11:59:17.856Z,11.05
2022-10-03T12:02:06.466Z,7.05
2022-10-03T12:05:01.249Z,5.90
2022-10-03T12:07:43.314Z,5.07
2022-10-03T12:10:37.908Z,6.75
2022-10-03T12:13:10.907Z,3.53
2022-10-03T12:15:56.230Z,4.57
2022-10-03T12:18:50.907Z,4.38
2022-10-03T12:21:30.388Z,4.75
2022-10-03T12:24:21.440Z,4.45
2022-10-03T12:27:09.744Z,4.72
2022-10-03T12:29:42.038Z,7.30
2022-10-03T12:32:17.425Z,6.43
2022-10-03T12:34:56.836Z,3.47
2022-10-03T12:37:35.750Z,4.07
2022-10-03T12:40:13.364Z,3.95
2022-10-03T12:42:51.423Z,3.17
2022-10-03T12:45:41.573Z,4.65
2022-10-03T12:48:27.327Z,2.53
2022-10-03T12:51:17.830Z,6.10
2022-10-03T12:54:00.165Z,7.05
2022-10-03T12:56:41.582Z,3.85
2022-10-03T12:59:32.122Z,2.50
2022-10-03T13:02:33.809Z,4.97
2022-10-03T13:05:24.244Z,2.05
2022-10-03T13:08:13.031Z,4.47
2022-10-03T13:10:45.548Z,3.10
2022-10-03T13:13:36.612Z,3.72
2022-10-03T13:16:09.585Z,6.97
2022-10-03T13:18:51.892Z,4.50
2022-10-03T13:21:45.393Z,5.25
2022-10-03T13:24:27.979Z,6.43
2022-10-03T13:27:13.339Z,2.38
2022-10-03T13:29:43.969Z,5.28
2022-10-03T13:32:29.801Z,3.92
2022-10-03T13:35:21.588Z,3.72
2022-10-03T13:38:06.349Z,3.92
2022-10-03T13:40:40.494Z,3.38
2022-10-03T13:43:16.599Z,5.05
2022-10-03T13:45:52.953Z,3.95
2022-10-03T13:48:27.210Z,4.30
2022-10-03T13:51:15.068Z,4.82
2022-10-03T13:54:10.923Z,5.35
2022-10-03T13:57:04.485Z,3.35
2022-10-03T13:59:34.630Z,3.88
2022-10-03T14:02:09.226Z,5.10
2022-10-03T14:07:41.660Z,7.07
2022-10-03T14:10:35.959Z,4.88
2022-10-03T14:13:29.184Z,6.45
2022-10-03T14:16:13.545Z,4.75
2022-10-03T14:19:05.966Z,2.42
2022-10-03T14:21:50.639Z,5.97
2022-10-03T14:24:39.353Z,5.40
2022-10-03T14:27:22.479Z,6.65
2022-10-03T14:30:19.345Z,4.55
2022-10-03T14:32:59.663Z,5.72
2022-10-03T14:36:04.095Z,6.20
2022-10-03T14:38:50.623Z,7.07
2022-10-03T14:41:21.861Z,3.13
2022-10-03T14:44:25.457Z,3.75
2022-10-03T14:46:57.469Z,9.73
2022-10-03T14:49:53.685Z,8.05
2022-10-03T14:52:36.364Z,4.03
2022-10-03T14:58:17.743Z,5.72
2022-10-03T15:01:18.361Z,9.02
2022-10-03T15:04:27.069Z,6.28
2022-10-03T15:06:56.193Z,6.22
2022-10-03T15:09:44.944Z,4.55
2022-10-03T15:12:34.870Z,6.38
2022-10-03T15:15:19.165Z,11.20
2022-10-03T15:17:49.677Z,5.93
2022-10-03T15:20:25.310Z,4.82
2022-10-03T15:22:58.742Z,7.60
2022-10-03T15:25:53.766Z,5.97
2022-10-03T15:28:23.072Z,4.35
2022-10-03T15:33:54.367Z,7.70
2022-10-03T15:36:36.508Z,6.55
2022-10-03T15:39:18.457Z,4.93
2022-10-03T15:44:29.601Z,6.63
2022-10-03T15:47:22.158Z,6.25
2022-10-03T15:50:04.670Z,11.32
2022-10-03T15:52:46.451Z,5.93
2022-10-03T15:55:40.317Z,5.00
2022-10-03T15:58:47.122Z,8.23
2022-10-03T16:01:25.675Z,14.88
2022-10-03T16:04:11.716Z,7.07
2022-10-03T16:06:58.710Z,3.83
2022-10-03T16:09:31.820Z,8.05
2022-10-03T16:12:19.941Z,6.15
2022-10-03T16:14:49.456Z,7.55
2022-10-03T16:17:39.788Z,7.75
2022-10-03T16:20:33.047Z,7.45
2022-10-03T16:23:19.736Z,7.85
2022-10-03T16:25:50.460Z,8.77
2022-10-03T16:28:31.365Z,9.73
2022-10-03T16:31:08.350Z,8.43
2022-10-03T16:33:39.075Z,8.63
2022-10-03T16:36:08.785Z,5.47
2022-10-03T16:38:43.079Z,11.48
2022-10-03T16:41:42.134Z,5.55
2022-10-03T16:44:46.638Z,5.82
2022-10-03T16:47:14.022Z,7.95
2022-10-03T16:49:55.102Z,5.60
2022-10-03T16:52:29.749Z,4.47
2022-10-03T16:55:04.983Z,5.00
2022-10-03T16:57:55.502Z,9.10
2022-10-03T17:01:03.975Z,14.23
2022-10-03T17:03:45.557Z,6.47
2022-10-03T17:06:35.350Z,75.82
2022-10-03T17:09:07.214Z,19.40
2022-10-03T17:11:38.340Z,8.30
2022-10-03T17:14:08.526Z,7.90
2022-10-03T17:16:52.393Z,7.45
2022-10-03T17:19:27.249Z,12.25
2022-10-03T17:22:03.839Z,6.75
2022-10-03T17:24:48.808Z,6.93
2022-10-03T17:27:35.579Z,6.53
2022-10-03T17:30:20.062Z,9.27
2022-10-03T17:32:56.433Z,4.43
2022-10-03T17:35:44.811Z,7.68
2022-10-03T17:38:48.940Z,6.95
2022-10-03T17:41:24.196Z,9.23
2022-10-03T17:44:01.148Z,7.63
2022-10-03T17:46:40.930Z,10.90
2022-10-03T17:49:44.903Z,9.77
2022-10-03T17:52:18.547Z,13.15
2022-10-03T17:54:53.540Z,9.52
2022-10-03T17:57:31.404Z,7.07
2022-10-03T18:00:21.893Z,5.72
2022-10-03T18:03:17.437Z,11.70
2022-10-03T18:05:55.011Z,9.70
2022-10-03T18:08:31.398Z,5.80
2022-10-03T18:11:00.704Z,6.32
2022-10-03T18:13:48.041Z,23.67
2022-10-03T18:16:35.231Z,15.85
2022-10-03T18:19:10.938Z,7.78
2022-10-03T18:21:44.000Z,7.20
2022-10-03T18:24:23.690Z,8.45
2022-10-03T18:27:33.429Z,11.00
2022-10-03T18:30:06.590Z,11.23
2022-10-03T18:32:38.573Z,8.85
2022-10-03T18:35:21.034Z,24.75
2022-10-03T18:38:11.592Z,9.25
2022-10-03T18:40:50.042Z,9.45
2022-10-03T18:43:33.747Z,10.35
2022-10-03T18:46:07.782Z,9.02
2022-10-03T18:49:30.029Z,8.18
2022-10-03T18:51:58.494Z,9.48
2022-10-03T18:54:45.981Z,10.52
2022-10-03T18:57:26.634Z,10.00
2022-10-03T19:00:15.107Z,8.95
2022-10-03T19:02:51.628Z,10.25
2022-10-03T19:05:24.811Z,10.07
2022-10-03T19:08:10.126Z,16.77
2022-10-03T19:10:43.560Z,17.02
2022-10-03T19:13:15.339Z,9.90
2022-10-03T19:18:44.189Z,10.55
2022-10-03T19:21:18.124Z,15.45
2022-10-03T19:23:51.001Z,14.80
2022-10-03T19:26:26.957Z,24.02
2022-10-03T19:29:00.079Z,15.27
2022-10-03T19:31:30.241Z,13.15
2022-10-03T19:34:05.625Z,17.40
2022-10-03T19:36:37.079Z,17.27
2022-10-03T19:39:05.409Z,23.08
2022-10-03T19:41:44.114Z,28.63
2022-10-03T19:44:17.642Z,15.65
2022-10-03T19:46:50.973Z,22.65
2022-10-03T19:49:56.449Z,16.67
2022-10-03T19:52:34.738Z,10.05
2022-10-03T19:55:10.115Z,10.43
2022-10-03T19:57:37.077Z,14.52
2022-10-03T20:00:07.671Z,10.75
2022-10-03T20:02:39.206Z,11.75
2022-10-03T20:05:06.790Z,18.50
2022-10-03T20:07:33.727Z,19.15
2022-10-03T20:10:29.616Z,15.05
2022-10-03T20:12:57.131Z,23.67
2022-10-03T20:15:25.832Z,21.50
2022-10-03T20:18:00.663Z,19.92
2022-10-03T20:20:31.120Z,16.83
2022-10-03T20:23:04.557Z,14.52
2022-10-03T20:25:37.921Z,48.63
2022-10-03T20:28:15.102Z,44.85
2022-10-03T20:30:48.705Z,21.30
2022-10-03T20:33:23.034Z,16.23
2022-10-03T20:36:04.320Z,17.75
2022-10-03T20:39:01.587Z,17.48
2022-10-03T20:41:52.937Z,70.78
2022-10-03T20:44:41.701Z,28.23
2022-10-03T20:47:28.068Z,12.48
2022-10-03T20:50:04.089Z,24.75
2022-10-03T20:52:32.575Z,17.38
2022-10-03T20:55:03.239Z,14.80
2022-10-03T20:57:52.990Z,12.55
2022-10-03T21:00:25.014Z,29.48
2022-10-03T21:03:06.298Z,14.57
2022-10-03T21:05:36.866Z,17.65
2022-10-03T21:08:12.007Z,26.20
2022-10-03T21:10:51.679Z,23.88
2022-10-03T21:13:35.977Z,33.83
2022-10-03T21:16:15.151Z,24.65
2022-10-03T21:18:47.594Z,18.90
2022-10-03T21:21:28.197Z,63.53
2022-10-03T21:24:10.369Z,106.50
2022-10-03T21:26:52.428Z,44.53
2022-10-03T21:32:06.614Z,62.20
2022-10-03T21:34:46.468Z,107.03
2022-10-03T21:37:26.327Z,21.98
2022-10-03T21:40:02.064Z,15.23
2022-10-03T21:42:41.897Z,16.13
2022-10-03T21:45:31.169Z,19.65
2022-10-03T21:48:29.786Z,18.77
2022-10-03T21:51:00.733Z,19.83
2022-10-03T21:53:42.799Z,17.53
2022-10-03T21:59:10.462Z,13.82
2022-10-03T22:01:49.279Z,20.40
2022-10-03T22:04:31.700Z,19.73
2022-10-03T22:07:13.056Z,26.05
2022-10-03T22:09:53.843Z,20.27
2022-10-03T22:12:22.227Z,26.38
2022-10-03T22:15:19.917Z,24.88
2022-10-03T22:17:49.837Z,30.10
2022-10-03T22:20:34.745Z,54.20
2022-10-03T22:23:32.349Z,68.53
2022-10-03T22:26:23.338Z,56.10
2022-10-03T22:29:20.668Z,66.55
2022-10-03T22:31:52.543Z,66.00
2022-10-03T22:34:37.869Z,102.20
2022-10-03T22:37:04.992Z,143.18
2022-10-03T22:39:34.658Z,168.73
2022-10-03T22:42:03.797Z,137.27
2022-10-03T22:44:33.826Z,63.10
2022-10-03T22:47:24.058Z,81.63
2022-10-03T22:49:53.513Z,151.35
2022-10-03T22:52:25.954Z,143.13
2022-10-03T22:54:55.083Z,20.38
2022-10-03T22:57:23.573Z,94.20
2022-10-03T23:00:01.010Z,87.78
2022-10-03T23:02:33.327Z,96.10
2022-10-03T23:05:14.115Z,16.33
2022-10-03T23:07:56.396Z,55.05
2022-10-03T23:10:31.801Z,84.72
2022-10-03T23:13:03.175Z,118.82
2022-10-03T23:15:33.595Z,65.82
2022-10-03T23:18:25.784Z,53.97
2022-10-03T23:23:47.962Z,29.42
2022-10-03T23:26:52.681Z,76.70
2022-10-03T23:29:20.920Z,89.82
2022-10-03T23:31:52.766Z,72.15
2022-10-03T23:37:01.611Z,140.70
2022-10-03T23:39:35.546Z,84.35
2022-10-03T23:42:09.621Z,35.58
2022-10-03T23:44:49.421Z,19.23
2022-10-03T23:47:19.696Z,52.80
2022-10-03T23:49:50.039Z,81.47
2022-10-03T23:52:30.599Z,33.13
2022-10-03T23:55:06.011Z,53.10
2022-10-03T23:57:41.821Z,131.27
